createdAt,value
2023-02-21T00:01:59.351Z,5.80
2023-02-21T00:04:44.965Z,5.77
2023-02-21T00:07:30.102Z,5.13
2023-02-21T00:10:15.600Z,5.50
2023-02-21T00:13:00.890Z,4.60
2023-02-21T00:15:47.509Z,4.63
2023-02-21T00:18:34.661Z,4.47
2023-02-21T00:21:19.986Z,5.13
2023-02-21T00:24:05.319Z,5.60
2023-02-21T00:26:50.771Z,3.60
2023-02-21T00:29:36.187Z,5.00
2023-02-21T00:32:23.407Z,4.47
2023-02-21T00:35:09.009Z,3.80
2023-02-21T00:37:54.353Z,4.63
2023-02-21T00:40:39.977Z,4.77
2023-02-21T00:43:26.297Z,7.70
2023-02-21T00:46:12.051Z,3.93
2023-02-21T00:48:59.098Z,7.20
2023-02-21T00:51:45.689Z,5.43
2023-02-21T00:54:31.233Z,6.63
2023-02-21T00:57:17.609Z,4.20
2023-02-21T01:00:03.068Z,3.80
2023-02-21T01:02:48.354Z,3.77
2023-02-21T01:05:35.009Z,5.23
2023-02-21T01:08:22.120Z,4.17
2023-02-21T01:11:07.541Z,3.83
2023-02-21T01:13:53.020Z,3.83
2023-02-21T01:16:38.432Z,4.10
2023-02-21T01:19:24.744Z,3.17
2023-02-21T01:22:11.712Z,3.27
2023-02-21T01:24:57.079Z,1.90
2023-02-21T01:27:43.442Z,2.77
2023-02-21T01:30:30.310Z,2.53
2023-02-21T01:33:15.700Z,2.90
2023-02-21T01:36:01.399Z,4.00
2023-02-21T01:38:48.044Z,2.23
2023-02-21T01:41:33.279Z,2.30
2023-02-21T01:44:20.659Z,2.77
2023-02-21T01:47:05.981Z,2.90
2023-02-21T01:49:53.134Z,2.50
2023-02-21T01:52:38.544Z,5.07
2023-02-21T01:55:27.530Z,3.87
2023-02-21T01:58:13.441Z,3.83
2023-02-21T02:00:59.854Z,5.27
2023-02-21T02:03:45.666Z,4.27
2023-02-21T02:06:33.259Z,3.60
2023-02-21T02:09:32.867Z,4.73
2023-02-21T02:12:23.897Z,4.03
2023-02-21T02:15:17.456Z,3.37
2023-02-21T02:18:10.867Z,3.93
2023-02-21T02:21:18.425Z,5.07
2023-02-21T02:24:16.397Z,5.03
2023-02-21T02:27:15.072Z,4.37
2023-02-21T02:30:16.955Z,4.20
2023-02-21T02:33:14.549Z,5.87
2023-02-21T02:35:50.157Z,4.57
2023-02-21T02:38:25.214Z,4.63
2023-02-21T02:41:00.408Z,3.83
2023-02-21T02:43:33.388Z,8.03
2023-02-21T02:46:06.877Z,6.27
2023-02-21T02:48:37.929Z,6.57
2023-02-21T02:51:12.580Z,5.43
2023-02-21T02:53:41.033Z,5.83
2023-02-21T02:56:11.822Z,5.77
2023-02-21T02:58:43.498Z,4.73
2023-02-21T03:01:37.302Z,5.00
2023-02-21T03:04:21.433Z,6.83
2023-02-21T03:06:59.709Z,6.97
2023-02-21T03:09:33.225Z,8.40
2023-02-21T03:12:06.900Z,6.20
2023-02-21T03:14:42.651Z,7.93
2023-02-21T03:17:14.439Z,6.93
2023-02-21T03:19:45.728Z,8.37
2023-02-21T03:22:19.476Z,8.27
2023-02-21T03:24:51.007Z,6.20
2023-02-21T03:27:21.948Z,10.00
2023-02-21T03:30:01.674Z,7.03
2023-02-21T03:32:31.644Z,9.27
2023-02-21T03:35:02.942Z,8.83
2023-02-21T03:37:35.087Z,9.33
2023-02-21T03:40:04.875Z,8.70
2023-02-21T03:42:34.891Z,14.87
2023-02-21T03:45:03.450Z,8.70
2023-02-21T03:47:32.242Z,7.67
2023-02-21T03:50:00.551Z,8.07
2023-02-21T03:52:28.918Z,6.17
2023-02-21T03:54:58.382Z,6.63
2023-02-21T03:57:27.538Z,9.50
2023-02-21T03:59:55.570Z,8.40
2023-02-21T04:02:24.051Z,7.70
2023-02-21T04:04:51.997Z,9.57
2023-02-21T04:07:22.316Z,10.07
2023-02-21T04:09:51.350Z,8.33
2023-02-21T04:12:32.861Z,10.30
2023-02-21T04:15:00.990Z,9.30
2023-02-21T04:17:28.819Z,10.23
2023-02-21T04:19:58.804Z,8.47
2023-02-21T04:22:26.931Z,8.50
2023-02-21T04:24:55.163Z,11.80
2023-02-21T04:27:24.575Z,8.73
2023-02-21T04:29:57.694Z,6.43
2023-02-21T04:32:25.828Z,7.57
2023-02-21T04:34:55.187Z,8.50
2023-02-21T04:37:24.054Z,10.77
2023-02-21T04:39:51.945Z,14.67
2023-02-21T04:42:19.900Z,8.97
2023-02-21T04:44:59.413Z,10.90
2023-02-21T04:47:30.312Z,7.53
2023-02-21T04:49:58.661Z,9.37
2023-02-21T04:52:26.598Z,9.90
2023-02-21T04:54:54.578Z,12.60
2023-02-21T04:57:22.485Z,11.13
2023-02-21T04:59:50.648Z,12.43
2023-02-21T05:02:18.474Z,11.57
2023-02-21T05:04:47.724Z,11.30
2023-02-21T05:07:15.603Z,12.73
2023-02-21T05:09:43.475Z,8.67
2023-02-21T05:12:12.238Z,10.47
2023-02-21T05:14:40.176Z,12.37
2023-02-21T05:17:08.573Z,9.77
2023-02-21T05:19:36.782Z,11.90
2023-02-21T05:22:07.088Z,11.70
2023-02-21T05:24:35.734Z,12.10
2023-02-21T05:27:03.577Z,11.57
2023-02-21T05:29:31.456Z,13.80
2023-02-21T05:31:59.299Z,14.27
2023-02-21T05:34:27.229Z,11.87
2023-02-21T05:36:55.055Z,12.37
2023-02-21T05:39:24.352Z,13.17
2023-02-21T05:41:52.917Z,13.80
2023-02-21T05:44:20.811Z,9.10
2023-02-21T05:46:48.696Z,13.20
2023-02-21T05:49:16.844Z,17.07
2023-02-21T05:51:45.548Z,15.67
2023-02-21T05:54:17.268Z,12.53
2023-02-21T05:56:48.021Z,11.27
2023-02-21T05:59:17.239Z,8.20
2023-02-21T06:01:45.189Z,15.93
2023-02-21T06:04:13.366Z,9.23
2023-02-21T06:06:41.420Z,10.83
2023-02-21T06:09:10.607Z,14.10
2023-02-21T06:11:40.350Z,16.30
2023-02-21T06:14:14.627Z,16.60
2023-02-21T06:16:42.635Z,15.43
2023-02-21T06:19:12.652Z,14.27
2023-02-21T06:21:41.797Z,17.33
2023-02-21T06:24:09.981Z,10.80
2023-02-21T06:26:38.248Z,17.67
2023-02-21T06:29:06.571Z,14.30
2023-02-21T06:31:36.271Z,19.40
2023-02-21T06:34:04.870Z,19.00
2023-02-21T06:36:32.765Z,18.97
2023-02-21T06:39:00.651Z,16.33
2023-02-21T06:41:30.621Z,19.03
2023-02-21T06:43:59.631Z,18.63
2023-02-21T06:46:30.246Z,15.63
2023-02-21T06:48:59.680Z,17.63
2023-02-21T06:51:29.418Z,14.67
2023-02-21T06:53:58.889Z,21.27
2023-02-21T06:56:27.140Z,16.63
2023-02-21T06:58:55.643Z,24.37
2023-02-21T07:01:24.056Z,17.73
2023-02-21T07:03:52.085Z,14.70
2023-02-21T07:06:21.651Z,15.73
2023-02-21T07:08:49.584Z,16.23
2023-02-21T07:11:18.992Z,17.83
2023-02-21T07:13:50.804Z,21.57
2023-02-21T07:16:19.002Z,17.70
2023-02-21T07:18:47.102Z,17.67
2023-02-21T07:21:16.421Z,20.00
2023-02-21T07:23:46.157Z,13.50
2023-02-21T07:26:15.144Z,19.50
2023-02-21T07:28:43.469Z,17.63
2023-02-21T07:31:11.951Z,15.23
2023-02-21T07:33:39.856Z,22.43
2023-02-21T07:36:08.496Z,16.40
2023-02-21T07:38:36.434Z,15.17
2023-02-21T07:41:05.962Z,19.27
2023-02-21T07:43:34.095Z,16.13
2023-02-21T07:46:02.355Z,26.13
2023-02-21T07:48:30.215Z,17.83
2023-02-21T07:50:58.077Z,16.43
2023-02-21T07:53:25.888Z,20.87
2023-02-21T07:55:56.096Z,17.80
2023-02-21T07:58:25.656Z,17.23
2023-02-21T08:00:55.442Z,17.90
2023-02-21T08:03:23.567Z,16.07
2023-02-21T08:05:51.446Z,17.50
2023-02-21T08:08:19.429Z,17.93
2023-02-21T08:10:47.235Z,18.00
2023-02-21T08:13:15.108Z,14.73
2023-02-21T08:15:44.699Z,15.23
2023-02-21T08:18:18.626Z,16.83
2023-02-21T08:20:46.545Z,20.90
2023-02-21T08:23:14.578Z,16.97
2023-02-21T08:25:42.482Z,18.93
2023-02-21T08:28:10.303Z,17.70
2023-02-21T08:30:38.341Z,17.63
2023-02-21T08:33:07.740Z,14.07
2023-02-21T08:35:35.903Z,13.20
2023-02-21T08:38:04.936Z,15.07
2023-02-21T08:40:33.221Z,17.80
2023-02-21T08:43:02.234Z,19.60
2023-02-21T08:45:30.685Z,16.73
2023-02-21T08:47:59.262Z,16.10
2023-02-21T08:50:29.567Z,17.23
2023-02-21T08:52:57.767Z,19.37
2023-02-21T08:55:25.910Z,15.37
2023-02-21T08:57:54.868Z,14.57
2023-02-21T09:00:24.868Z,19.93
2023-02-21T09:02:53.506Z,19.80
2023-02-21T09:05:24.636Z,16.23
2023-02-21T09:07:58.793Z,16.90
2023-02-21T09:10:27.481Z,17.87
2023-02-21T09:12:55.329Z,14.17
2023-02-21T09:15:23.246Z,14.60
2023-02-21T09:17:51.083Z,16.33
2023-02-21T09:20:20.837Z,12.97
2023-02-21T09:22:48.789Z,17.70
2023-02-21T09:25:22.881Z,18.73
2023-02-21T09:27:52.584Z,11.57
2023-02-21T09:30:23.780Z,19.10
2023-02-21T09:32:51.925Z,16.97
2023-02-21T09:35:19.810Z,15.80
2023-02-21T09:37:48.049Z,19.63
2023-02-21T09:40:28.000Z,16.43
2023-02-21T09:43:00.628Z,14.77
2023-02-21T09:45:32.058Z,13.83
2023-02-21T09:48:03.575Z,12.73
2023-02-21T09:50:38.044Z,14.43
2023-02-21T09:53:06.121Z,16.63
2023-02-21T09:55:39.322Z,14.80
2023-02-21T09:58:12.697Z,14.43
2023-02-21T10:00:41.156Z,15.33
2023-02-21T10:03:35.328Z,12.43
2023-02-21T10:06:12.624Z,18.33
2023-02-21T10:08:45.646Z,19.13
2023-02-21T10:11:28.540Z,12.23
2023-02-21T10:14:07.021Z,13.40
2023-02-21T10:16:40.235Z,17.70
2023-02-21T10:19:15.757Z,10.83
2023-02-21T10:21:46.701Z,12.50
2023-02-21T10:24:16.223Z,17.80
2023-02-21T10:26:51.431Z,13.30
2023-02-21T10:29:23.860Z,15.47
2023-02-21T10:31:55.957Z,12.17
2023-02-21T10:34:28.117Z,14.97
2023-02-21T10:36:56.929Z,15.23
2023-02-21T10:39:34.066Z,12.10
2023-02-21T10:42:03.354Z,12.17
2023-02-21T10:44:35.980Z,14.50
2023-02-21T10:47:09.442Z,11.73
2023-02-21T10:49:45.374Z,11.50
2023-02-21T10:52:16.861Z,13.43
2023-02-21T10:55:01.689Z,12.40
2023-02-21T10:57:32.750Z,17.97
2023-02-21T11:00:09.820Z,11.33
2023-02-21T11:02:40.167Z,14.83
2023-02-21T11:05:12.464Z,12.80
2023-02-21T11:07:42.099Z,12.47
2023-02-21T11:10:31.988Z,11.43
2023-02-21T11:13:15.037Z,13.77
2023-02-21T11:15:43.678Z,14.97
2023-02-21T11:18:18.207Z,17.77
2023-02-21T11:20:47.144Z,11.97
2023-02-21T11:23:29.192Z,14.93
2023-02-21T11:26:07.152Z,14.27
2023-02-21T11:28:43.365Z,12.87
2023-02-21T11:31:19.227Z,14.27
2023-02-21T11:33:53.268Z,13.27
2023-02-21T11:36:27.816Z,14.93
2023-02-21T11:39:05.286Z,13.17
2023-02-21T11:41:38.298Z,15.10
2023-02-21T11:44:25.564Z,14.07
2023-02-21T11:47:02.192Z,13.03
2023-02-21T11:49:38.418Z,14.20
2023-02-21T11:52:10.731Z,9.87
2023-02-21T11:54:41.017Z,13.40
2023-02-21T11:57:19.133Z,13.73
2023-02-21T11:59:58.652Z,14.47
2023-02-21T12:02:57.823Z,12.23
2023-02-21T12:05:42.888Z,12.97
2023-02-21T12:08:43.723Z,13.73
2023-02-21T12:11:28.333Z,17.00
2023-02-21T12:14:30.888Z,12.97
2023-02-21T12:17:15.064Z,13.97
2023-02-21T12:19:59.329Z,10.83
2023-02-21T12:22:42.757Z,11.73
2023-02-21T12:25:19.591Z,12.90
2023-02-21T12:27:55.938Z,10.07
2023-02-21T12:30:57.859Z,14.13
2023-02-21T12:33:39.144Z,10.50
2023-02-21T12:36:17.181Z,15.87
2023-02-21T12:38:57.053Z,11.30
2023-02-21T12:41:37.704Z,8.47
2023-02-21T12:44:14.470Z,11.20
2023-02-21T12:46:49.751Z,10.20
2023-02-21T12:49:23.766Z,11.00
2023-02-21T12:51:58.867Z,11.97
2023-02-21T12:54:41.505Z,16.00
2023-02-21T12:57:13.559Z,10.00
2023-02-21T12:59:52.172Z,9.93
2023-02-21T13:02:28.159Z,8.73
2023-02-21T13:05:01.509Z,9.03
2023-02-21T13:07:37.628Z,8.40
2023-02-21T13:10:13.678Z,11.17
2023-02-21T13:12:46.068Z,12.07
2023-02-21T13:15:20.373Z,8.90
2023-02-21T13:17:57.323Z,11.10
2023-02-21T13:20:29.890Z,10.77
2023-02-21T13:23:41.427Z,8.90
2023-02-21T13:26:26.263Z,10.27
2023-02-21T13:28:55.761Z,9.33
2023-02-21T13:31:26.760Z,12.77
2023-02-21T13:33:58.480Z,6.13
2023-02-21T13:36:31.774Z,8.70
2023-02-21T13:39:15.682Z,7.97
2023-02-21T13:41:47.235Z,9.27
2023-02-21T13:44:23.862Z,8.03
2023-02-21T13:47:06.190Z,7.30
2023-02-21T13:49:59.792Z,6.30
2023-02-21T13:52:53.436Z,8.30
2023-02-21T13:55:34.279Z,9.33
2023-02-21T13:58:46.773Z,11.50
2023-02-21T14:01:50.095Z,11.43
2023-02-21T14:05:01.375Z,8.83
2023-02-21T14:07:57.531Z,9.27
2023-02-21T14:10:48.723Z,11.63
2023-02-21T14:13:23.577Z,9.27
2023-02-21T14:15:59.495Z,7.80
2023-02-21T14:18:31.553Z,10.53
2023-02-21T14:21:00.310Z,7.80
2023-02-21T14:23:41.746Z,9.57
2023-02-21T14:26:41.625Z,9.50
2023-02-21T14:29:28.905Z,10.27
2023-02-21T14:31:59.213Z,8.50
2023-02-21T14:34:38.167Z,9.00
2023-02-21T14:37:15.931Z,8.43
2023-02-21T14:39:51.944Z,7.63
2023-02-21T14:42:45.895Z,8.30
2023-02-21T14:45:34.393Z,12.23
2023-02-21T14:48:26.936Z,11.17
2023-02-21T14:51:17.944Z,12.03
2023-02-21T14:54:04.646Z,10.57
2023-02-21T14:56:53.137Z,7.13
2023-02-21T14:59:37.545Z,7.17
2023-02-21T15:02:18.182Z,7.83
2023-02-21T15:04:56.319Z,9.07
2023-02-21T15:07:32.549Z,10.50
2023-02-21T15:10:16.468Z,8.43
2023-02-21T15:12:49.698Z,9.50
2023-02-21T15:15:25.248Z,10.07
2023-02-21T15:18:03.153Z,11.77
2023-02-21T15:20:33.640Z,10.27
2023-02-21T15:23:06.209Z,10.37
2023-02-21T15:25:34.150Z,11.20
2023-02-21T15:28:06.714Z,10.93
2023-02-21T15:30:40.377Z,12.33
2023-02-21T15:33:18.599Z,9.90
2023-02-21T15:35:52.325Z,8.73
2023-02-21T15:38:27.920Z,12.00
2023-02-21T15:41:01.087Z,12.90
2023-02-21T15:43:38.143Z,12.90
2023-02-21T15:46:09.058Z,8.47
2023-02-21T15:48:37.389Z,11.53
2023-02-21T15:51:09.318Z,8.53
2023-02-21T15:53:38.854Z,9.97
2023-02-21T15:56:22.501Z,9.07
2023-02-21T15:59:20.692Z,6.80
2023-02-21T16:02:17.310Z,11.97
2023-02-21T16:04:46.877Z,11.20
2023-02-21T16:07:22.321Z,9.50
2023-02-21T16:09:57.666Z,9.00
2023-02-21T16:12:32.974Z,10.40
2023-02-21T16:15:06.532Z,8.70
2023-02-21T16:17:36.623Z,9.57
2023-02-21T16:20:19.392Z,8.23
2023-02-21T16:25:36.896Z,10.57
2023-02-21T16:28:13.660Z,11.27
2023-02-21T16:30:43.009Z,9.17
2023-02-21T16:33:13.841Z,11.47
2023-02-21T16:35:42.767Z,10.90
2023-02-21T16:38:14.227Z,10.30
2023-02-21T16:40:42.166Z,12.00
2023-02-21T16:43:17.743Z,14.03
2023-02-21T16:45:48.317Z,13.37
2023-02-21T16:48:21.670Z,10.13
2023-02-21T16:50:50.898Z,9.27
2023-02-21T16:53:19.969Z,15.03
2023-02-21T16:55:48.321Z,10.50
2023-02-21T16:58:25.852Z,7.80
2023-02-21T17:00:58.077Z,11.20
2023-02-21T17:03:28.360Z,7.83
2023-02-21T17:05:57.517Z,13.20
2023-02-21T17:08:25.631Z,7.13
2023-02-21T17:10:53.690Z,12.73
2023-02-21T17:13:21.530Z,8.23
2023-02-21T17:15:49.428Z,10.97
2023-02-21T17:18:18.687Z,8.30
2023-02-21T17:20:46.857Z,8.57
2023-02-21T17:23:14.699Z,9.57
2023-02-21T17:25:42.921Z,14.20
2023-02-21T17:28:10.830Z,12.73
2023-02-21T17:30:38.728Z,11.43
2023-02-21T17:33:08.048Z,10.73
2023-02-21T17:35:38.697Z,15.70
2023-02-21T17:38:06.981Z,8.30
2023-02-21T17:40:34.802Z,15.07
2023-02-21T17:43:03.275Z,9.53
2023-02-21T17:45:31.185Z,13.90
2023-02-21T17:47:59.057Z,16.57
2023-02-21T17:50:27.024Z,12.37
2023-02-21T17:52:56.322Z,18.90
2023-02-21T17:55:26.442Z,13.23
2023-02-21T17:57:54.527Z,13.60
2023-02-21T18:00:24.850Z,12.83
2023-02-21T18:02:53.326Z,9.40
2023-02-21T18:05:21.759Z,11.00
2023-02-21T18:07:50.948Z,9.20
2023-02-21T18:10:22.257Z,10.30
2023-02-21T18:12:51.518Z,12.60
2023-02-21T18:15:21.004Z,12.53
2023-02-21T18:17:49.003Z,14.87
2023-02-21T18:20:17.475Z,20.57
2023-02-21T18:22:46.775Z,11.43
2023-02-21T18:25:15.926Z,11.77
2023-02-21T18:27:45.977Z,10.57
2023-02-21T18:30:16.079Z,11.50
2023-02-21T18:32:44.065Z,12.17
2023-02-21T18:35:11.852Z,11.80
2023-02-21T18:37:39.725Z,9.93
2023-02-21T18:40:08.916Z,12.50
2023-02-21T18:42:36.858Z,17.07
2023-02-21T18:45:06.432Z,13.97
2023-02-21T18:47:34.803Z,15.07
2023-02-21T18:50:02.806Z,15.70
2023-02-21T18:52:30.877Z,16.10
2023-02-21T18:55:03.886Z,11.97
2023-02-21T18:57:31.900Z,15.03
2023-02-21T18:59:59.845Z,12.57
2023-02-21T19:02:29.117Z,16.83
2023-02-21T19:04:56.971Z,10.27
2023-02-21T19:07:24.849Z,11.60
2023-02-21T19:09:52.659Z,13.07
2023-02-21T19:12:20.528Z,11.93
2023-02-21T19:14:48.378Z,10.47
2023-02-21T19:17:16.241Z,16.00
2023-02-21T19:19:45.479Z,11.07
2023-02-21T19:22:13.373Z,11.00
2023-02-21T19:24:41.168Z,9.53
2023-02-21T19:27:09.132Z,10.40
2023-02-21T19:29:37.155Z,8.70
2023-02-21T19:32:05.715Z,9.03
2023-02-21T19:34:33.571Z,12.07
2023-02-21T19:37:02.829Z,10.03
2023-02-21T19:39:30.765Z,12.43
2023-02-21T19:41:58.672Z,10.53
2023-02-21T19:44:26.549Z,9.30
2023-02-21T19:46:54.416Z,8.83
2023-02-21T19:49:22.413Z,10.90
2023-02-21T19:51:52.936Z,10.27
2023-02-21T19:54:26.831Z,11.30
2023-02-21T19:56:54.762Z,10.17
2023-02-21T19:59:22.810Z,12.60
2023-02-21T20:01:50.982Z,9.97
2023-02-21T20:04:19.042Z,13.50
2023-02-21T20:06:48.087Z,10.23
2023-02-21T20:09:15.970Z,10.70
2023-02-21T20:11:45.182Z,11.17
2023-02-21T20:14:14.531Z,13.47
2023-02-21T20:16:43.939Z,13.70
2023-02-21T20:19:12.851Z,12.10
2023-02-21T20:21:41.357Z,12.57
2023-02-21T20:24:10.222Z,11.37
2023-02-21T20:26:38.811Z,13.50
2023-02-21T20:29:07.978Z,10.47
2023-02-21T20:31:37.504Z,10.80
2023-02-21T20:34:06.752Z,8.30
2023-02-21T20:36:37.856Z,11.77
2023-02-21T20:39:07.188Z,9.50
2023-02-21T20:41:38.708Z,9.47
2023-02-21T20:44:08.034Z,14.60
2023-02-21T20:46:38.347Z,18.47
2023-02-21T20:49:06.933Z,14.13
2023-02-21T20:51:36.741Z,12.33
2023-02-21T20:54:05.690Z,15.10
2023-02-21T20:56:34.934Z,13.80
2023-02-21T20:59:04.764Z,14.90
2023-02-21T21:01:34.969Z,14.63
2023-02-21T21:04:05.265Z,13.93
2023-02-21T21:06:34.293Z,12.97
2023-02-21T21:09:03.626Z,13.53
2023-02-21T21:11:32.708Z,15.13
2023-02-21T21:14:00.666Z,14.00
2023-02-21T21:16:28.507Z,15.23
2023-02-21T21:18:59.095Z,13.03
2023-02-21T21:21:29.468Z,14.90
2023-02-21T21:23:57.423Z,17.77
2023-02-21T21:26:25.735Z,16.23
2023-02-21T21:28:54.084Z,14.13
2023-02-21T21:31:23.527Z,15.20
2023-02-21T21:33:51.731Z,17.03
2023-02-21T21:36:20.964Z,13.50
2023-02-21T21:38:48.804Z,16.67
2023-02-21T21:41:17.075Z,17.17
2023-02-21T21:43:48.268Z,21.00
2023-02-21T21:46:16.431Z,15.53
2023-02-21T21:48:45.542Z,14.77
2023-02-21T21:51:14.540Z,16.03
2023-02-21T21:53:45.991Z,15.53
2023-02-21T21:56:17.250Z,18.17
2023-02-21T21:58:45.242Z,17.80
2023-02-21T22:01:15.206Z,18.63
2023-02-21T22:03:44.355Z,17.07
2023-02-21T22:06:12.231Z,20.83
2023-02-21T22:08:40.108Z,19.30
2023-02-21T22:11:09.913Z,19.43
2023-02-21T22:13:37.773Z,16.00
2023-02-21T22:16:06.266Z,14.73
2023-02-21T22:18:34.307Z,14.23
2023-02-21T22:21:02.131Z,19.93
2023-02-21T22:23:30.222Z,19.53
2023-02-21T22:25:58.109Z,22.57
2023-02-21T22:28:27.325Z,19.40
2023-02-21T22:30:55.354Z,21.00
2023-02-21T22:33:23.298Z,19.47
2023-02-21T22:35:51.320Z,20.77
2023-02-21T22:38:19.193Z,19.13
2023-02-21T22:40:47.195Z,18.80
2023-02-21T22:43:16.147Z,15.20
2023-02-21T22:45:49.605Z,18.73
2023-02-21T22:48:20.523Z,16.47
2023-02-21T22:50:49.237Z,16.83
2023-02-21T22:53:18.861Z,18.93
2023-02-21T22:55:51.638Z,16.40
2023-02-21T22:58:21.224Z,14.57
2023-02-21T23:00:50.944Z,12.00
2023-02-21T23:03:18.862Z,15.53
2023-02-21T23:05:49.411Z,15.40
2023-02-21T23:08:19.585Z,18.60
2023-02-21T23:10:48.784Z,12.73
2023-02-21T23:13:19.040Z,15.30
2023-02-21T23:15:47.741Z,14.47
2023-02-21T23:18:21.094Z,16.60
2023-02-21T23:20:52.610Z,17.73
2023-02-21T23:23:21.299Z,11.47
2023-02-21T23:25:49.098Z,15.17
2023-02-21T23:28:17.284Z,15.40
2023-02-21T23:30:46.085Z,14.10
2023-02-21T23:33:18.029Z,14.33
2023-02-21T23:35:49.159Z,17.27
2023-02-21T23:38:19.899Z,14.97
2023-02-21T23:40:50.522Z,17.03
2023-02-21T23:43:19.276Z,13.37
2023-02-21T23:45:48.134Z,10.73
2023-02-21T23:48:17.346Z,15.13
2023-02-21T23:50:47.633Z,14.60
2023-02-21T23:53:17.932Z,16.83
2023-02-21T23:55:46.849Z,12.83
2023-02-21T23:58:17.451Z,13.37
